sensor_id;sensor_type;location;lat;lon;timestamp;P1;durP1;ratioP1;P2;durP2;ratioP2
74689;SDS011;63221;51.860;-2.188;2023-05-07T00:00:43;26.40;;;12.30;;
74689;SDS011;63221;51.860;-2.188;2023-05-07T00:03:09;24.33;;;12.13;;
74689;SDS011;63221;51.860;-2.188;2023-05-07T00:05:34;28.52;;;14.07;;
74689;SDS011;63221;51.860;-2.188;2023-05-07T00:08:00;24.90;;;11.50;;
74689;SDS011;63221;51.860;-2.188;2023-05-07T00:10:25;26.92;;;12.32;;
74689;SDS011;63221;51.860;-2.188;2023-05-07T00:12:51;29.20;;;14.00;;
74689;SDS011;63221;51.860;-2.188;2023-05-07T00:15:16;28.13;;;12.70;;
74689;SDS011;63221;51.860;-2.188;2023-05-07T00:17:42;30.47;;;13.80;;
74689;SDS011;63221;51.860;-2.188;2023-05-07T00:20:07;30.42;;;14.07;;
74689;SDS011;63221;51.860;-2.188;2023-05-07T00:22:33;28.23;;;15.17;;
74689;SDS011;63221;51.860;-2.188;2023-05-07T00:24:58;31.30;;;15.17;;
74689;SDS011;63221;51.860;-2.188;2023-05-07T00:27:24;32.58;;;13.77;;
74689;SDS011;63221;51.860;-2.188;2023-05-07T00:29:50;31.47;;;14.13;;
74689;SDS011;63221;51.860;-2.188;2023-05-07T00:32:15;30.85;;;14.00;;
74689;SDS011;63221;51.860;-2.188;2023-05-07T00:34:41;34.53;;;14.27;;
74689;SDS011;63221;51.860;-2.188;2023-05-07T00:37:06;34.87;;;15.97;;
74689;SDS011;63221;51.860;-2.188;2023-05-07T00:39:34;30.90;;;13.43;;
74689;SDS011;63221;51.860;-2.188;2023-05-07T00:42:00;38.53;;;15.63;;
74689;SDS011;63221;51.860;-2.188;2023-05-07T00:44:26;35.60;;;15.77;;
74689;SDS011;63221;51.860;-2.188;2023-05-07T00:46:52;33.60;;;16.00;;
74689;SDS011;63221;51.860;-2.188;2023-05-07T00:49:18;34.93;;;14.60;;
74689;SDS011;63221;51.860;-2.188;2023-05-07T00:51:43;29.77;;;14.10;;
74689;SDS011;63221;51.860;-2.188;2023-05-07T00:54:09;36.03;;;16.77;;
74689;SDS011;63221;51.860;-2.188;2023-05-07T00:56:36;32.47;;;13.48;;
74689;SDS011;63221;51.860;-2.188;2023-05-07T00:59:01;30.95;;;14.75;;
74689;SDS011;63221;51.860;-2.188;2023-05-07T01:01:27;29.03;;;12.80;;
74689;SDS011;63221;51.860;-2.188;2023-05-07T01:03:53;38.90;;;14.85;;
74689;SDS011;63221;51.860;-2.188;2023-05-07T01:06:18;32.80;;;15.40;;
74689;SDS011;63221;51.860;-2.188;2023-05-07T01:08:45;35.33;;;15.57;;
74689;SDS011;63221;51.860;-2.188;2023-05-07T01:11:10;34.10;;;15.63;;
74689;SDS011;63221;51.860;-2.188;2023-05-07T01:13:36;32.57;;;15.00;;
74689;SDS011;63221;51.860;-2.188;2023-05-07T01:16:02;42.47;;;14.75;;
74689;SDS011;63221;51.860;-2.188;2023-05-07T01:18:28;37.27;;;15.80;;
74689;SDS011;63221;51.860;-2.188;2023-05-07T01:20:55;35.40;;;16.63;;
74689;SDS011;63221;51.860;-2.188;2023-05-07T01:23:22;38.22;;;17.42;;
74689;SDS011;63221;51.860;-2.188;2023-05-07T01:25:52;38.30;;;15.80;;
74689;SDS011;63221;51.860;-2.188;2023-05-07T01:28:18;39.47;;;17.33;;
74689;SDS011;63221;51.860;-2.188;2023-05-07T01:30:44;38.63;;;17.58;;
74689;SDS011;63221;51.860;-2.188;2023-05-07T01:33:13;41.28;;;17.92;;
74689;SDS011;63221;51.860;-2.188;2023-05-07T01:35:41;31.30;;;14.17;;
74689;SDS011;63221;51.860;-2.188;2023-05-07T01:38:08;37.28;;;15.00;;
74689;SDS011;63221;51.860;-2.188;2023-05-07T01:40:33;42.27;;;15.70;;
74689;SDS011;63221;51.860;-2.188;2023-05-07T01:43:02;33.20;;;16.23;;
74689;SDS011;63221;51.860;-2.188;2023-05-07T01:45:28;33.65;;;13.95;;
74689;SDS011;63221;51.860;-2.188;2023-05-07T01:47:54;40.90;;;15.20;;
74689;SDS011;63221;51.860;-2.188;2023-05-07T01:50:20;26.37;;;11.83;;
74689;SDS011;63221;51.860;-2.188;2023-05-07T01:52:46;26.13;;;11.13;;
74689;SDS011;63221;51.860;-2.188;2023-05-07T01:55:12;24.27;;;10.00;;
74689;SDS011;63221;51.860;-2.188;2023-05-07T01:57:38;28.05;;;11.45;;
74689;SDS011;63221;51.860;-2.188;2023-05-07T02:00:03;25.93;;;11.20;;
74689;SDS011;63221;51.860;-2.188;2023-05-07T02:02:30;26.58;;;12.32;;
74689;SDS011;63221;51.860;-2.188;2023-05-07T02:04:56;21.90;;;10.37;;
74689;SDS011;63221;51.860;-2.188;2023-05-07T02:07:21;19.67;;;9.07;;
74689;SDS011;63221;51.860;-2.188;2023-05-07T02:09:47;20.93;;;9.23;;
74689;SDS011;63221;51.860;-2.188;2023-05-07T02:12:12;20.07;;;10.10;;
74689;SDS011;63221;51.860;-2.188;2023-05-07T02:14:38;22.20;;;8.90;;
74689;SDS011;63221;51.860;-2.188;2023-05-07T02:17:03;19.52;;;8.75;;
74689;SDS011;63221;51.860;-2.188;2023-05-07T02:19:28;19.60;;;9.03;;
74689;SDS011;63221;51.860;-2.188;2023-05-07T02:21:54;23.77;;;10.43;;
74689;SDS011;63221;51.860;-2.188;2023-05-07T02:24:20;21.02;;;9.18;;
74689;SDS011;63221;51.860;-2.188;2023-05-07T02:26:45;17.87;;;8.30;;
74689;SDS011;63221;51.860;-2.188;2023-05-07T02:29:11;16.83;;;7.83;;
74689;SDS011;63221;51.860;-2.188;2023-05-07T02:31:36;17.77;;;8.53;;
74689;SDS011;63221;51.860;-2.188;2023-05-07T02:34:01;20.08;;;8.82;;
74689;SDS011;63221;51.860;-2.188;2023-05-07T02:36:27;19.80;;;9.03;;
74689;SDS011;63221;51.860;-2.188;2023-05-07T02:38:52;19.37;;;8.43;;
74689;SDS011;63221;51.860;-2.188;2023-05-07T02:41:18;16.55;;;7.63;;
74689;SDS011;63221;51.860;-2.188;2023-05-07T02:43:45;24.60;;;8.50;;
74689;SDS011;63221;51.860;-2.188;2023-05-07T02:46:10;20.43;;;9.17;;
74689;SDS011;63221;51.860;-2.188;2023-05-07T02:48:35;20.43;;;7.77;;
74689;SDS011;63221;51.860;-2.188;2023-05-07T02:51:01;21.90;;;9.15;;
74689;SDS011;63221;51.860;-2.188;2023-05-07T02:53:27;19.00;;;9.03;;
74689;SDS011;63221;51.860;-2.188;2023-05-07T02:55:55;18.00;;;8.07;;
74689;SDS011;63221;51.860;-2.188;2023-05-07T02:58:21;20.55;;;9.63;;
74689;SDS011;63221;51.860;-2.188;2023-05-07T03:00:46;23.53;;;8.20;;
74689;SDS011;63221;51.860;-2.188;2023-05-07T03:03:12;21.20;;;8.20;;
74689;SDS011;63221;51.860;-2.188;2023-05-07T03:05:38;24.63;;;8.60;;
74689;SDS011;63221;51.860;-2.188;2023-05-07T03:08:03;21.77;;;8.25;;
74689;SDS011;63221;51.860;-2.188;2023-05-07T03:10:29;16.73;;;7.27;;
74689;SDS011;63221;51.860;-2.188;2023-05-07T03:12:55;19.50;;;8.45;;
74689;SDS011;63221;51.860;-2.188;2023-05-07T03:15:20;20.27;;;8.80;;
74689;SDS011;63221;51.860;-2.188;2023-05-07T03:17:46;19.40;;;8.88;;
74689;SDS011;63221;51.860;-2.188;2023-05-07T03:20:12;19.52;;;8.27;;
74689;SDS011;63221;51.860;-2.188;2023-05-07T03:22:38;19.50;;;7.77;;
74689;SDS011;63221;51.860;-2.188;2023-05-07T03:25:04;15.45;;;7.55;;
74689;SDS011;63221;51.860;-2.188;2023-05-07T03:27:30;22.40;;;7.93;;
74689;SDS011;63221;51.860;-2.188;2023-05-07T03:29:55;15.55;;;5.95;;
74689;SDS011;63221;51.860;-2.188;2023-05-07T03:32:21;15.93;;;7.63;;
74689;SDS011;63221;51.860;-2.188;2023-05-07T03:34:46;15.87;;;7.13;;
74689;SDS011;63221;51.860;-2.188;2023-05-07T03:37:11;16.63;;;7.20;;
74689;SDS011;63221;51.860;-2.188;2023-05-07T03:39:37;15.50;;;7.87;;
74689;SDS011;63221;51.860;-2.188;2023-05-07T03:42:02;15.07;;;7.60;;
74689;SDS011;63221;51.860;-2.188;2023-05-07T03:44:28;13.57;;;7.70;;
74689;SDS011;63221;51.860;-2.188;2023-05-07T03:46:54;15.50;;;7.60;;
74689;SDS011;63221;51.860;-2.188;2023-05-07T03:49:20;15.38;;;7.05;;
74689;SDS011;63221;51.860;-2.188;2023-05-07T03:51:46;21.70;;;7.17;;
74689;SDS011;63221;51.860;-2.188;2023-05-07T03:54:11;18.83;;;7.47;;
74689;SDS011;63221;51.860;-2.188;2023-05-07T03:56:36;17.77;;;6.90;;
74689;SDS011;63221;51.860;-2.188;2023-05-07T03:59:02;14.37;;;6.70;;
74689;SDS011;63221;51.860;-2.188;2023-05-07T04:01:27;13.23;;;7.37;;
74689;SDS011;63221;51.860;-2.188;2023-05-07T04:03:53;16.13;;;8.17;;
74689;SDS011;63221;51.860;-2.188;2023-05-07T04:06:18;17.42;;;7.45;;
74689;SDS011;63221;51.860;-2.188;2023-05-07T04:08:43;19.20;;;8.43;;
74689;SDS011;63221;51.860;-2.188;2023-05-07T04:11:09;17.43;;;8.27;;
74689;SDS011;63221;51.860;-2.188;2023-05-07T04:13:34;15.60;;;7.50;;
74689;SDS011;63221;51.860;-2.188;2023-05-07T04:16:01;16.80;;;7.65;;
74689;SDS011;63221;51.860;-2.188;2023-05-07T04:18:27;14.20;;;7.57;;
74689;SDS011;63221;51.860;-2.188;2023-05-07T04:20:53;17.95;;;8.40;;
74689;SDS011;63221;51.860;-2.188;2023-05-07T04:23:18;17.50;;;7.63;;
74689;SDS011;63221;51.860;-2.188;2023-05-07T04:25:43;20.90;;;8.10;;
74689;SDS011;63221;51.860;-2.188;2023-05-07T04:28:10;14.60;;;7.25;;
74689;SDS011;63221;51.860;-2.188;2023-05-07T04:30:36;17.85;;;7.95;;
74689;SDS011;63221;51.860;-2.188;2023-05-07T04:33:01;16.47;;;6.93;;
74689;SDS011;63221;51.860;-2.188;2023-05-07T04:35:26;17.30;;;7.70;;
74689;SDS011;63221;51.860;-2.188;2023-05-07T04:37:52;17.07;;;7.20;;
74689;SDS011;63221;51.860;-2.188;2023-05-07T04:40:17;14.10;;;5.70;;
74689;SDS011;63221;51.860;-2.188;2023-05-07T04:42:43;10.77;;;4.90;;
74689;SDS011;63221;51.860;-2.188;2023-05-07T04:45:08;15.00;;;6.73;;
74689;SDS011;63221;51.860;-2.188;2023-05-07T04:47:35;15.95;;;5.32;;
74689;SDS011;63221;51.860;-2.188;2023-05-07T04:50:00;11.90;;;5.28;;
74689;SDS011;63221;51.860;-2.188;2023-05-07T04:52:26;11.67;;;5.37;;
74689;SDS011;63221;51.860;-2.188;2023-05-07T04:54:51;11.27;;;4.93;;
74689;SDS011;63221;51.860;-2.188;2023-05-07T04:57:17;12.13;;;4.73;;
74689;SDS011;63221;51.860;-2.188;2023-05-07T04:59:43;10.10;;;4.70;;
74689;SDS011;63221;51.860;-2.188;2023-05-07T05:02:10;8.87;;;4.30;;
74689;SDS011;63221;51.860;-2.188;2023-05-07T05:04:35;12.93;;;4.30;;
74689;SDS011;63221;51.860;-2.188;2023-05-07T05:07:02;9.57;;;4.57;;
74689;SDS011;63221;51.860;-2.188;2023-05-07T05:09:29;8.02;;;4.10;;
74689;SDS011;63221;51.860;-2.188;2023-05-07T05:11:54;7.30;;;3.70;;
74689;SDS011;63221;51.860;-2.188;2023-05-07T05:14:20;11.25;;;4.25;;
74689;SDS011;63221;51.860;-2.188;2023-05-07T05:16:45;8.90;;;3.77;;
74689;SDS011;63221;51.860;-2.188;2023-05-07T05:19:11;9.73;;;3.30;;
74689;SDS011;63221;51.860;-2.188;2023-05-07T05:21:36;8.33;;;2.87;;
74689;SDS011;63221;51.860;-2.188;2023-05-07T05:24:01;7.00;;;3.57;;
74689;SDS011;63221;51.860;-2.188;2023-05-07T05:26:27;6.30;;;2.05;;
74689;SDS011;63221;51.860;-2.188;2023-05-07T05:28:52;6.27;;;2.83;;
74689;SDS011;63221;51.860;-2.188;2023-05-07T05:31:18;10.07;;;3.63;;
74689;SDS011;63221;51.860;-2.188;2023-05-07T05:33:43;6.17;;;3.17;;
74689;SDS011;63221;51.860;-2.188;2023-05-07T05:36:09;6.37;;;3.13;;
74689;SDS011;63221;51.860;-2.188;2023-05-07T05:38:35;7.20;;;2.85;;
74689;SDS011;63221;51.860;-2.188;2023-05-07T05:41:00;5.70;;;2.67;;
74689;SDS011;63221;51.860;-2.188;2023-05-07T05:43:27;5.43;;;2.88;;
74689;SDS011;63221;51.860;-2.188;2023-05-07T05:45:52;5.13;;;2.57;;
74689;SDS011;63221;51.860;-2.188;2023-05-07T05:48:17;6.43;;;2.73;;
74689;SDS011;63221;51.860;-2.188;2023-05-07T05:50:43;8.23;;;2.43;;
74689;SDS011;63221;51.860;-2.188;2023-05-07T05:53:08;7.50;;;2.07;;
74689;SDS011;63221;51.860;-2.188;2023-05-07T05:55:34;7.18;;;3.40;;
74689;SDS011;63221;51.860;-2.188;2023-05-07T05:58:02;5.17;;;2.77;;
74689;SDS011;63221;51.860;-2.188;2023-05-07T06:00:28;5.90;;;2.47;;
74689;SDS011;63221;51.860;-2.188;2023-05-07T06:02:54;9.63;;;3.37;;
74689;SDS011;63221;51.860;-2.188;2023-05-07T06:05:19;6.18;;;2.30;;
74689;SDS011;63221;51.860;-2.188;2023-05-07T06:07:45;6.70;;;2.60;;
74689;SDS011;63221;51.860;-2.188;2023-05-07T06:10:10;8.13;;;1.90;;
74689;SDS011;63221;51.860;-2.188;2023-05-07T06:12:36;3.38;;;1.90;;
74689;SDS011;63221;51.860;-2.188;2023-05-07T06:15:01;6.57;;;1.87;;
74689;SDS011;63221;51.860;-2.188;2023-05-07T06:17:27;8.73;;;2.73;;
74689;SDS011;63221;51.860;-2.188;2023-05-07T06:19:52;5.40;;;1.97;;
74689;SDS011;63221;51.860;-2.188;2023-05-07T06:22:18;6.73;;;2.50;;
74689;SDS011;63221;51.860;-2.188;2023-05-07T06:24:43;3.87;;;2.17;;
74689;SDS011;63221;51.860;-2.188;2023-05-07T06:27:08;5.73;;;2.00;;
74689;SDS011;63221;51.860;-2.188;2023-05-07T06:29:34;6.00;;;2.73;;
74689;SDS011;63221;51.860;-2.188;2023-05-07T06:32:09;8.00;;;2.90;;
74689;SDS011;63221;51.860;-2.188;2023-05-07T06:34:37;5.43;;;3.20;;
74689;SDS011;63221;51.860;-2.188;2023-05-07T06:37:03;5.13;;;2.90;;
74689;SDS011;63221;51.860;-2.188;2023-05-07T06:39:29;4.73;;;2.20;;
74689;SDS011;63221;51.860;-2.188;2023-05-07T06:41:54;6.23;;;2.17;;
74689;SDS011;63221;51.860;-2.188;2023-05-07T06:44:20;6.03;;;2.40;;
74689;SDS011;63221;51.860;-2.188;2023-05-07T06:46:45;6.85;;;2.30;;
74689;SDS011;63221;51.860;-2.188;2023-05-07T06:49:12;6.23;;;2.20;;
74689;SDS011;63221;51.860;-2.188;2023-05-07T06:51:38;6.82;;;2.28;;
74689;SDS011;63221;51.860;-2.188;2023-05-07T06:54:03;7.40;;;2.37;;
74689;SDS011;63221;51.860;-2.188;2023-05-07T06:56:29;5.72;;;1.92;;
74689;SDS011;63221;51.860;-2.188;2023-05-07T06:58:55;4.10;;;1.83;;
74689;SDS011;63221;51.860;-2.188;2023-05-07T07:01:21;8.98;;;2.15;;
74689;SDS011;63221;51.860;-2.188;2023-05-07T07:03:46;7.03;;;2.40;;
74689;SDS011;63221;51.860;-2.188;2023-05-07T07:06:12;5.10;;;1.90;;
74689;SDS011;63221;51.860;-2.188;2023-05-07T07:08:37;3.53;;;1.90;;
74689;SDS011;63221;51.860;-2.188;2023-05-07T07:11:04;8.70;;;2.58;;
74689;SDS011;63221;51.860;-2.188;2023-05-07T07:13:29;8.77;;;2.07;;
74689;SDS011;63221;51.860;-2.188;2023-05-07T07:15:55;5.65;;;2.80;;
74689;SDS011;63221;51.860;-2.188;2023-05-07T07:18:20;6.30;;;1.40;;
74689;SDS011;63221;51.860;-2.188;2023-05-07T07:20:46;5.07;;;2.20;;
74689;SDS011;63221;51.860;-2.188;2023-05-07T07:23:11;4.00;;;1.63;;
74689;SDS011;63221;51.860;-2.188;2023-05-07T07:25:37;5.57;;;1.90;;
74689;SDS011;63221;51.860;-2.188;2023-05-07T07:28:02;4.07;;;2.27;;
74689;SDS011;63221;51.860;-2.188;2023-05-07T07:30:27;6.47;;;2.47;;
74689;SDS011;63221;51.860;-2.188;2023-05-07T07:32:53;8.73;;;1.90;;
74689;SDS011;63221;51.860;-2.188;2023-05-07T07:35:20;7.00;;;2.17;;
74689;SDS011;63221;51.860;-2.188;2023-05-07T07:37:45;7.97;;;2.45;;
74689;SDS011;63221;51.860;-2.188;2023-05-07T07:40:11;7.63;;;2.07;;
74689;SDS011;63221;51.860;-2.188;2023-05-07T07:42:37;4.43;;;3.17;;
74689;SDS011;63221;51.860;-2.188;2023-05-07T07:45:02;6.00;;;2.17;;
74689;SDS011;63221;51.860;-2.188;2023-05-07T07:47:28;5.43;;;1.80;;
74689;SDS011;63221;51.860;-2.188;2023-05-07T07:49:53;4.03;;;1.87;;
74689;SDS011;63221;51.860;-2.188;2023-05-07T07:52:19;4.60;;;1.90;;
74689;SDS011;63221;51.860;-2.188;2023-05-07T07:54:45;4.65;;;1.77;;
74689;SDS011;63221;51.860;-2.188;2023-05-07T07:57:10;6.10;;;2.23;;
74689;SDS011;63221;51.860;-2.188;2023-05-07T07:59:35;6.17;;;2.27;;
74689;SDS011;63221;51.860;-2.188;2023-05-07T08:02:01;6.03;;;2.83;;
74689;SDS011;63221;51.860;-2.188;2023-05-07T08:04:26;3.47;;;2.50;;
74689;SDS011;63221;51.860;-2.188;2023-05-07T08:06:52;4.43;;;2.43;;
74689;SDS011;63221;51.860;-2.188;2023-05-07T08:09:19;3.75;;;2.10;;
74689;SDS011;63221;51.860;-2.188;2023-05-07T08:11:44;5.13;;;2.07;;
74689;SDS011;63221;51.860;-2.188;2023-05-07T08:14:10;4.43;;;2.13;;
74689;SDS011;63221;51.860;-2.188;2023-05-07T08:16:36;6.07;;;2.15;;
74689;SDS011;63221;51.860;-2.188;2023-05-07T08:19:02;4.10;;;2.47;;
74689;SDS011;63221;51.860;-2.188;2023-05-07T08:21:27;6.07;;;2.58;;
74689;SDS011;63221;51.860;-2.188;2023-05-07T08:23:53;7.23;;;2.63;;
74689;SDS011;63221;51.860;-2.188;2023-05-07T08:26:18;6.93;;;2.70;;
74689;SDS011;63221;51.860;-2.188;2023-05-07T08:28:44;4.80;;;2.17;;
74689;SDS011;63221;51.860;-2.188;2023-05-07T08:31:09;4.17;;;2.37;;
74689;SDS011;63221;51.860;-2.188;2023-05-07T08:33:35;7.63;;;1.80;;
74689;SDS011;63221;51.860;-2.188;2023-05-07T08:36:00;4.57;;;2.43;;
74689;SDS011;63221;51.860;-2.188;2023-05-07T08:38:25;5.18;;;1.92;;
74689;SDS011;63221;51.860;-2.188;2023-05-07T08:40:51;4.90;;;2.40;;
74689;SDS011;63221;51.860;-2.188;2023-05-07T08:43:17;3.75;;;2.20;;
74689;SDS011;63221;51.860;-2.188;2023-05-07T08:45:43;6.17;;;1.90;;
74689;SDS011;63221;51.860;-2.188;2023-05-07T08:48:17;7.32;;;2.90;;
74689;SDS011;63221;51.860;-2.188;2023-05-07T08:50:42;6.72;;;2.30;;
74689;SDS011;63221;51.860;-2.188;2023-05-07T08:53:08;8.47;;;2.40;;
74689;SDS011;63221;51.860;-2.188;2023-05-07T08:55:34;3.75;;;1.52;;
74689;SDS011;63221;51.860;-2.188;2023-05-07T08:57:59;5.70;;;2.20;;
74689;SDS011;63221;51.860;-2.188;2023-05-07T09:00:25;4.28;;;2.30;;
74689;SDS011;63221;51.860;-2.188;2023-05-07T09:02:52;8.53;;;2.77;;
74689;SDS011;63221;51.860;-2.188;2023-05-07T09:05:18;5.68;;;2.60;;
74689;SDS011;63221;51.860;-2.188;2023-05-07T09:07:43;5.20;;;2.08;;
74689;SDS011;63221;51.860;-2.188;2023-05-07T09:10:09;5.67;;;2.40;;
74689;SDS011;63221;51.860;-2.188;2023-05-07T09:12:35;4.85;;;2.67;;
74689;SDS011;63221;51.860;-2.188;2023-05-07T09:15:01;5.53;;;2.38;;
74689;SDS011;63221;51.860;-2.188;2023-05-07T09:17:28;4.40;;;2.60;;
74689;SDS011;63221;51.860;-2.188;2023-05-07T09:19:53;4.70;;;2.65;;
74689;SDS011;63221;51.860;-2.188;2023-05-07T09:22:19;5.63;;;2.27;;
74689;SDS011;63221;51.860;-2.188;2023-05-07T09:24:48;5.28;;;2.30;;
74689;SDS011;63221;51.860;-2.188;2023-05-07T09:27:14;5.80;;;2.40;;
74689;SDS011;63221;51.860;-2.188;2023-05-07T09:29:40;7.28;;;1.60;;
74689;SDS011;63221;51.860;-2.188;2023-05-07T09:32:05;5.07;;;2.30;;
74689;SDS011;63221;51.860;-2.188;2023-05-07T09:34:32;5.28;;;2.13;;
74689;SDS011;63221;51.860;-2.188;2023-05-07T09:37:01;4.63;;;1.80;;
74689;SDS011;63221;51.860;-2.188;2023-05-07T09:39:38;5.60;;;2.40;;
74689;SDS011;63221;51.860;-2.188;2023-05-07T09:42:10;7.50;;;2.88;;
74689;SDS011;63221;51.860;-2.188;2023-05-07T09:44:45;5.35;;;1.95;;
74689;SDS011;63221;51.860;-2.188;2023-05-07T09:47:12;4.38;;;2.25;;
74689;SDS011;63221;51.860;-2.188;2023-05-07T09:49:45;4.22;;;2.38;;
74689;SDS011;63221;51.860;-2.188;2023-05-07T09:52:13;4.40;;;2.47;;
74689;SDS011;63221;51.860;-2.188;2023-05-07T09:54:39;2.88;;;1.70;;
74689;SDS011;63221;51.860;-2.188;2023-05-07T09:57:07;4.13;;;2.70;;
74689;SDS011;63221;51.860;-2.188;2023-05-07T09:59:35;4.75;;;2.42;;
74689;SDS011;63221;51.860;-2.188;2023-05-07T10:02:02;5.97;;;2.33;;
74689;SDS011;63221;51.860;-2.188;2023-05-07T10:04:28;6.53;;;3.07;;
74689;SDS011;63221;51.860;-2.188;2023-05-07T10:06:54;4.57;;;3.28;;
74689;SDS011;63221;51.860;-2.188;2023-05-07T10:09:20;6.25;;;2.65;;
74689;SDS011;63221;51.860;-2.188;2023-05-07T10:11:46;5.13;;;2.70;;
74689;SDS011;63221;51.860;-2.188;2023-05-07T10:14:14;5.55;;;2.25;;
74689;SDS011;63221;51.860;-2.188;2023-05-07T10:16:39;7.45;;;2.65;;
74689;SDS011;63221;51.860;-2.188;2023-05-07T10:19:06;5.38;;;2.35;;
74689;SDS011;63221;51.860;-2.188;2023-05-07T10:21:38;4.37;;;2.10;;
74689;SDS011;63221;51.860;-2.188;2023-05-07T10:24:06;3.88;;;2.05;;
74689;SDS011;63221;51.860;-2.188;2023-05-07T10:26:39;5.28;;;2.25;;
74689;SDS011;63221;51.860;-2.188;2023-05-07T10:29:10;4.07;;;2.25;;
74689;SDS011;63221;51.860;-2.188;2023-05-07T10:34:41;5.77;;;2.47;;
74689;SDS011;63221;51.860;-2.188;2023-05-07T10:37:08;4.85;;;2.10;;
74689;SDS011;63221;51.860;-2.188;2023-05-07T10:39:35;3.95;;;2.63;;
74689;SDS011;63221;51.860;-2.188;2023-05-07T10:42:10;4.50;;;2.07;;
74689;SDS011;63221;51.860;-2.188;2023-05-07T10:44:36;3.20;;;2.22;;
74689;SDS011;63221;51.860;-2.188;2023-05-07T10:47:06;4.43;;;2.65;;
74689;SDS011;63221;51.860;-2.188;2023-05-07T10:52:12;6.25;;;2.38;;
74689;SDS011;63221;51.860;-2.188;2023-05-07T10:54:46;6.80;;;2.78;;
74689;SDS011;63221;51.860;-2.188;2023-05-07T10:59:55;3.38;;;2.35;;
74689;SDS011;63221;51.860;-2.188;2023-05-07T11:02:21;6.80;;;2.23;;
74689;SDS011;63221;51.860;-2.188;2023-05-07T11:05:05;3.27;;;1.73;;
74689;SDS011;63221;51.860;-2.188;2023-05-07T11:10:22;4.50;;;3.03;;
74689;SDS011;63221;51.860;-2.188;2023-05-07T11:12:48;4.23;;;2.80;;
74689;SDS011;63221;51.860;-2.188;2023-05-07T11:15:37;6.18;;;2.40;;
74689;SDS011;63221;51.860;-2.188;2023-05-07T11:18:08;6.07;;;2.83;;
74689;SDS011;63221;51.860;-2.188;2023-05-07T11:20:47;3.70;;;2.47;;
74689;SDS011;63221;51.860;-2.188;2023-05-07T11:28:33;5.70;;;2.85;;
74689;SDS011;63221;51.860;-2.188;2023-05-07T11:31:02;4.88;;;2.55;;
74689;SDS011;63221;51.860;-2.188;2023-05-07T11:33:28;5.93;;;2.97;;
74689;SDS011;63221;51.860;-2.188;2023-05-07T11:35:55;4.05;;;2.58;;
74689;SDS011;63221;51.860;-2.188;2023-05-07T11:38:20;4.15;;;1.80;;
74689;SDS011;63221;51.860;-2.188;2023-05-07T11:43:18;3.80;;;2.90;;
74689;SDS011;63221;51.860;-2.188;2023-05-07T11:45:45;3.63;;;2.35;;
74689;SDS011;63221;51.860;-2.188;2023-05-07T11:48:11;4.63;;;1.98;;
74689;SDS011;63221;51.860;-2.188;2023-05-07T11:50:49;4.22;;;2.15;;
74689;SDS011;63221;51.860;-2.188;2023-05-07T11:53:16;5.07;;;2.00;;
74689;SDS011;63221;51.860;-2.188;2023-05-07T11:55:42;5.75;;;2.20;;
74689;SDS011;63221;51.860;-2.188;2023-05-07T11:58:09;3.87;;;2.23;;
74689;SDS011;63221;51.860;-2.188;2023-05-07T12:00:37;4.03;;;2.13;;
74689;SDS011;63221;51.860;-2.188;2023-05-07T12:03:05;3.37;;;1.97;;
74689;SDS011;63221;51.860;-2.188;2023-05-07T12:05:31;3.47;;;2.28;;
74689;SDS011;63221;51.860;-2.188;2023-05-07T12:07:56;3.40;;;1.47;;
74689;SDS011;63221;51.860;-2.188;2023-05-07T12:10:22;3.40;;;1.75;;
74689;SDS011;63221;51.860;-2.188;2023-05-07T12:12:49;4.80;;;2.00;;
74689;SDS011;63221;51.860;-2.188;2023-05-07T12:15:16;3.77;;;2.40;;
74689;SDS011;63221;51.860;-2.188;2023-05-07T12:17:42;4.13;;;1.92;;
74689;SDS011;63221;51.860;-2.188;2023-05-07T12:20:08;3.15;;;2.15;;
74689;SDS011;63221;51.860;-2.188;2023-05-07T12:22:34;4.25;;;2.60;;
74689;SDS011;63221;51.860;-2.188;2023-05-07T12:25:01;4.40;;;2.00;;
74689;SDS011;63221;51.860;-2.188;2023-05-07T12:27:27;4.47;;;1.83;;
74689;SDS011;63221;51.860;-2.188;2023-05-07T12:29:52;4.25;;;1.90;;
74689;SDS011;63221;51.860;-2.188;2023-05-07T12:32:18;3.30;;;1.90;;
74689;SDS011;63221;51.860;-2.188;2023-05-07T12:34:46;5.85;;;2.78;;
74689;SDS011;63221;51.860;-2.188;2023-05-07T12:37:14;4.53;;;1.52;;
74689;SDS011;63221;51.860;-2.188;2023-05-07T12:39:49;3.10;;;2.03;;
74689;SDS011;63221;51.860;-2.188;2023-05-07T12:42:28;3.08;;;1.27;;
74689;SDS011;63221;51.860;-2.188;2023-05-07T12:44:58;4.18;;;1.75;;
74689;SDS011;63221;51.860;-2.188;2023-05-07T12:47:23;4.13;;;1.77;;
74689;SDS011;63221;51.860;-2.188;2023-05-07T12:49:48;6.20;;;2.17;;
74689;SDS011;63221;51.860;-2.188;2023-05-07T12:52:14;3.87;;;1.40;;
74689;SDS011;63221;51.860;-2.188;2023-05-07T12:54:39;3.17;;;1.87;;
74689;SDS011;63221;51.860;-2.188;2023-05-07T12:57:06;4.70;;;2.05;;
74689;SDS011;63221;51.860;-2.188;2023-05-07T13:02:05;3.08;;;1.85;;
74689;SDS011;63221;51.860;-2.188;2023-05-07T13:04:30;3.47;;;2.50;;
74689;SDS011;63221;51.860;-2.188;2023-05-07T13:06:56;4.07;;;2.13;;
74689;SDS011;63221;51.860;-2.188;2023-05-07T13:09:21;2.83;;;1.10;;
74689;SDS011;63221;51.860;-2.188;2023-05-07T13:11:47;3.20;;;2.13;;
74689;SDS011;63221;51.860;-2.188;2023-05-07T13:14:12;5.40;;;2.53;;
74689;SDS011;63221;51.860;-2.188;2023-05-07T13:16:37;4.00;;;1.80;;
74689;SDS011;63221;51.860;-2.188;2023-05-07T13:19:03;3.00;;;1.67;;
74689;SDS011;63221;51.860;-2.188;2023-05-07T13:21:29;6.88;;;2.45;;
74689;SDS011;63221;51.860;-2.188;2023-05-07T13:23:56;3.17;;;1.67;;
74689;SDS011;63221;51.860;-2.188;2023-05-07T13:26:23;2.75;;;1.70;;
74689;SDS011;63221;51.860;-2.188;2023-05-07T13:28:48;3.50;;;1.38;;
74689;SDS011;63221;51.860;-2.188;2023-05-07T13:31:14;6.40;;;2.13;;
74689;SDS011;63221;51.860;-2.188;2023-05-07T13:33:39;5.80;;;2.27;;
74689;SDS011;63221;51.860;-2.188;2023-05-07T13:36:04;3.97;;;1.27;;
74689;SDS011;63221;51.860;-2.188;2023-05-07T13:38:30;3.67;;;2.40;;
74689;SDS011;63221;51.860;-2.188;2023-05-07T13:40:56;3.37;;;2.17;;
74689;SDS011;63221;51.860;-2.188;2023-05-07T13:43:21;4.05;;;1.95;;
74689;SDS011;63221;51.860;-2.188;2023-05-07T13:45:47;4.07;;;1.97;;
74689;SDS011;63221;51.860;-2.188;2023-05-07T13:48:12;3.97;;;1.80;;
74689;SDS011;63221;51.860;-2.188;2023-05-07T13:50:37;3.57;;;1.70;;
74689;SDS011;63221;51.860;-2.188;2023-05-07T13:53:03;5.15;;;2.17;;
74689;SDS011;63221;51.860;-2.188;2023-05-07T13:55:28;4.10;;;2.47;;
74689;SDS011;63221;51.860;-2.188;2023-05-07T13:57:55;5.22;;;3.28;;
74689;SDS011;63221;51.860;-2.188;2023-05-07T14:00:24;3.10;;;1.57;;
74689;SDS011;63221;51.860;-2.188;2023-05-07T14:02:51;3.92;;;2.30;;
74689;SDS011;63221;51.860;-2.188;2023-05-07T14:05:17;4.95;;;2.40;;
74689;SDS011;63221;51.860;-2.188;2023-05-07T14:07:42;3.53;;;1.60;;
74689;SDS011;63221;51.860;-2.188;2023-05-07T14:10:08;2.47;;;1.60;;
74689;SDS011;63221;51.860;-2.188;2023-05-07T14:12:34;3.67;;;1.80;;
74689;SDS011;63221;51.860;-2.188;2023-05-07T14:15:00;2.35;;;1.50;;
74689;SDS011;63221;51.860;-2.188;2023-05-07T14:17:25;4.87;;;2.33;;
74689;SDS011;63221;51.860;-2.188;2023-05-07T14:19:52;6.18;;;2.20;;
74689;SDS011;63221;51.860;-2.188;2023-05-07T14:22:21;4.88;;;2.42;;
74689;SDS011;63221;51.860;-2.188;2023-05-07T14:24:47;2.95;;;1.50;;
74689;SDS011;63221;51.860;-2.188;2023-05-07T14:27:13;6.93;;;2.30;;
74689;SDS011;63221;51.860;-2.188;2023-05-07T14:29:38;5.17;;;2.30;;
74689;SDS011;63221;51.860;-2.188;2023-05-07T14:32:04;3.55;;;2.22;;
74689;SDS011;63221;51.860;-2.188;2023-05-07T14:34:31;7.38;;;3.67;;
74689;SDS011;63221;51.860;-2.188;2023-05-07T14:36:57;8.07;;;4.13;;
74689;SDS011;63221;51.860;-2.188;2023-05-07T14:39:22;8.10;;;4.27;;
74689;SDS011;63221;51.860;-2.188;2023-05-07T14:41:48;6.70;;;3.78;;
74689;SDS011;63221;51.860;-2.188;2023-05-07T14:44:13;7.50;;;6.00;;